Kezdőlap
METAR-TAF:

METAR-TAF

Repülőterek :

Urgench, Üzbegisztán

földrajzi szélesség: 41-35N, földrajzi hosszúság: 060-38-42E, magasság: 98 m

Jelenlegi meteorológiai megfigyelések

A jelentés 44 perccel ezelõtt készült, 11:30 UTC
Északnyugati szél 10 kt
Hőmérséklet 13°C
Páratartalom 54%
Légköri nyomás 1014 hPa
Látótávolság 10 km, vagy több
felhőtlen 1500 m magasságban, és nincs gomolyfelhõ

METAR: UTNU 191130Z 32010KT CAVOK 13/04 Q1014 R31/CLRD70 NOSIG

Idő: 17:14 (12:14 UTC)

Előrejelzés

A jelentés 1 órával és 14 perccel ezelõtt készült, 11:00 UTC
Az előrejelzés 19-én 12 óra UTC és 20-én 12 óra UTC között érvényes
Nyugat-északnyugati szél 12 kt széllökések: 22 kt
Látótávolság 10 km, vagy több
Szakadozott felhőzet 3000 lábon
Szakadozott felhőzet 10000 lábon
19-én 18 óra UTC és 20-én 04 óra UTC között ideiglenes
Észak-északnyugati szél 8 kt

TAF: UTNU 191100Z 1912/2012 29012G22KT 9999 BKN030 BKN100 TEMPO 1918/2004 34008KT

Meteorológiai megfigyelések és előrejelzések több, mint 4000 repülőtéren (METAR és TAF jelentéseket).

A térképen piros és sárga pontok jelzik az elérhető meteorológiai állomásokat.

Mozgassa az egeret a pont fölött, hogy megjelenjen az állomás neve.

Azután kattintson az időjárási megfigyelések és előrejelzések megtekintéséhez.

A térkép megváltoztatása: kattintson a fekete keresztel jelölt zöld gombra ráközelítéshez, a vonallal jelölt zöld gombra távolításhoz, vagy a zöld nyilakra a szomszédos térképek eléréséhez.


METAR-TAF: